createdAt,value
2022-11-22T00:01:52.275Z,-12.40
2022-11-22T00:04:20.330Z,-12.43
2022-11-22T00:06:49.363Z,-12.48
2022-11-22T00:09:17.332Z,-12.49
2022-11-22T00:11:45.270Z,-12.49
2022-11-22T00:14:14.232Z,-12.51
2022-11-22T00:16:41.904Z,-12.47
2022-11-22T00:19:11.021Z,-12.48
2022-11-22T00:21:41.133Z,-12.49
2022-11-22T00:24:09.518Z,-12.48
2022-11-22T00:26:37.475Z,-12.45
2022-11-22T00:29:07.154Z,-12.41
2022-11-22T00:31:35.227Z,-12.66
2022-11-22T00:34:03.357Z,-12.43
2022-11-22T00:36:31.495Z,-12.32
2022-11-22T00:38:59.486Z,-12.28
2022-11-22T00:41:27.475Z,-12.25
2022-11-22T00:43:55.613Z,-12.23
2022-11-22T00:46:23.517Z,-12.21
2022-11-22T00:48:52.664Z,-12.22
2022-11-22T00:51:20.857Z,-12.13
2022-11-22T00:53:48.916Z,-12.12
2022-11-22T00:56:16.970Z,-12.09
2022-11-22T00:58:45.138Z,-12.08
2022-11-22T01:01:13.177Z,-12.06
2022-11-22T01:03:41.218Z,-12.05
2022-11-22T01:06:09.470Z,-12.03
2022-11-22T01:08:37.458Z,-12.01
2022-11-22T01:11:05.421Z,-12.00
2022-11-22T01:13:36.395Z,-11.96
2022-11-22T01:16:10.342Z,-11.95
2022-11-22T01:18:38.612Z,-11.95
2022-11-22T01:21:06.820Z,-12.01
2022-11-22T01:23:35.424Z,-11.91
2022-11-22T01:26:03.906Z,-11.94
2022-11-22T01:28:33.501Z,-11.87
2022-11-22T01:31:03.471Z,-12.10
2022-11-22T01:33:31.559Z,-11.84
2022-11-22T01:36:00.754Z,-11.83
2022-11-22T01:38:28.822Z,-11.80
2022-11-22T01:40:56.835Z,-11.87
2022-11-22T01:43:28.165Z,-11.80
2022-11-22T01:46:08.387Z,-11.76
2022-11-22T01:48:45.881Z,-11.74
2022-11-22T01:51:26.883Z,-11.73
2022-11-22T01:54:00.068Z,-11.71
2022-11-22T01:56:30.472Z,-11.70
2022-11-22T01:59:03.499Z,-11.67
2022-11-22T02:01:34.275Z,-11.70
2022-11-22T02:04:05.912Z,-11.66
2022-11-22T02:06:50.752Z,-11.63
2022-11-22T02:09:19.147Z,-11.60
2022-11-22T02:11:52.767Z,-11.59
2022-11-22T02:14:28.121Z,-11.59
2022-11-22T02:16:56.191Z,-11.61
2022-11-22T02:19:46.095Z,-11.52
2022-11-22T02:22:34.934Z,-11.49
2022-11-22T02:25:21.832Z,-11.48
2022-11-22T02:27:51.525Z,-11.43
2022-11-22T02:30:20.151Z,-11.41
2022-11-22T02:32:49.420Z,-11.37
2022-11-22T02:35:23.675Z,-11.34
2022-11-22T02:38:00.811Z,-11.30
2022-11-22T02:40:48.135Z,-11.26
2022-11-22T02:43:23.936Z,-11.29
2022-11-22T02:45:51.877Z,-11.16
2022-11-22T02:48:20.202Z,-11.10
2022-11-22T02:50:50.844Z,-11.06
2022-11-22T02:53:18.865Z,-11.01
2022-11-22T02:55:46.827Z,-10.97
2022-11-22T02:58:15.711Z,-10.92
2022-11-22T03:00:43.724Z,-10.88
2022-11-22T03:03:11.695Z,-10.84
2022-11-22T03:05:39.769Z,-10.82
2022-11-22T03:08:07.772Z,-10.76
2022-11-22T03:10:35.714Z,-10.72
2022-11-22T03:13:05.291Z,-10.69
2022-11-22T03:15:33.344Z,-10.65
2022-11-22T03:18:03.332Z,-10.61
2022-11-22T03:20:33.077Z,-10.58
2022-11-22T03:23:04.147Z,-10.55
2022-11-22T03:25:32.115Z,-10.53
2022-11-22T03:28:00.082Z,-10.51
2022-11-22T03:30:28.966Z,-10.49
2022-11-22T03:32:57.045Z,-10.45
2022-11-22T03:35:25.286Z,-10.43
2022-11-22T03:37:54.231Z,-10.42
2022-11-22T03:40:22.182Z,-10.39
2022-11-22T03:42:50.150Z,-10.34
2022-11-22T03:45:19.168Z,-10.31
2022-11-22T03:47:47.125Z,-10.27
2022-11-22T03:50:15.125Z,-10.22
2022-11-22T03:52:44.269Z,-10.18
2022-11-22T03:55:11.911Z,-10.16
2022-11-22T03:57:40.694Z,-10.14
2022-11-22T04:00:11.301Z,-10.12
2022-11-22T04:02:39.378Z,-10.10
2022-11-22T04:05:07.798Z,-10.05
2022-11-22T04:07:37.217Z,-9.99
2022-11-22T04:10:06.509Z,-9.94
2022-11-22T04:12:35.010Z,-9.90
2022-11-22T04:15:12.002Z,-9.83
2022-11-22T04:17:44.823Z,-9.79
2022-11-22T04:20:35.309Z,-9.77
2022-11-22T04:23:06.080Z,-9.73
2022-11-22T04:25:36.445Z,-9.71
2022-11-22T04:28:07.058Z,-9.66
2022-11-22T04:30:54.424Z,-9.62
2022-11-22T04:33:22.977Z,-9.55
2022-11-22T04:35:51.416Z,-9.51
2022-11-22T04:38:20.473Z,-9.47
2022-11-22T04:40:49.752Z,-9.47
2022-11-22T04:43:44.745Z,-9.42
2022-11-22T04:46:14.372Z,-9.35
2022-11-22T04:48:43.064Z,-9.32
2022-11-22T04:51:35.066Z,-9.36
2022-11-22T04:54:03.052Z,-9.26
2022-11-22T04:56:31.019Z,-9.23
2022-11-22T04:58:59.212Z,-9.17
2022-11-22T05:01:27.224Z,-9.14
2022-11-22T05:03:55.139Z,-9.08
2022-11-22T05:06:24.128Z,-9.04
2022-11-22T05:08:52.173Z,-8.99
2022-11-22T05:11:20.201Z,-9.06
2022-11-22T05:13:48.290Z,-8.89
2022-11-22T05:16:16.819Z,-8.87
2022-11-22T05:18:44.837Z,-8.86
2022-11-22T05:21:18.049Z,-8.77
2022-11-22T05:23:55.056Z,-8.74
2022-11-22T05:26:28.445Z,-8.68
2022-11-22T05:28:58.692Z,-8.72
2022-11-22T05:31:28.072Z,-8.62
2022-11-22T05:33:58.823Z,-8.60
2022-11-22T05:36:27.077Z,-8.54
2022-11-22T05:38:55.840Z,-8.48
2022-11-22T05:41:24.925Z,-8.44
2022-11-22T05:43:54.745Z,-8.39
2022-11-22T05:46:25.478Z,-8.35
2022-11-22T05:48:56.351Z,-8.34
2022-11-22T05:51:32.526Z,-8.33
2022-11-22T05:54:03.526Z,-8.30
2022-11-22T05:56:31.799Z,-8.28
2022-11-22T05:58:59.967Z,-8.23
2022-11-22T06:01:28.172Z,-8.21
2022-11-22T06:03:57.285Z,-8.19
2022-11-22T06:06:25.315Z,-8.19
2022-11-22T06:08:53.288Z,-8.20
2022-11-22T06:11:26.634Z,-8.20
2022-11-22T06:13:56.818Z,-8.22
2022-11-22T06:16:26.354Z,-8.20
2022-11-22T06:18:57.927Z,-8.18
2022-11-22T06:21:29.128Z,-8.17
2022-11-22T06:23:57.348Z,-8.14
2022-11-22T06:26:27.949Z,-8.12
2022-11-22T06:28:56.041Z,-8.12
2022-11-22T06:31:26.524Z,-8.11
2022-11-22T06:33:57.247Z,-8.11
2022-11-22T06:36:28.048Z,-8.10
2022-11-22T06:38:56.306Z,-8.08
2022-11-22T06:41:28.359Z,-8.03
2022-11-22T06:43:59.286Z,-7.99
2022-11-22T06:46:28.305Z,-7.96
2022-11-22T06:48:56.440Z,-7.95
2022-11-22T06:51:28.120Z,-7.93
2022-11-22T06:53:58.448Z,-7.97
2022-11-22T06:56:30.474Z,-7.90
2022-11-22T06:58:58.513Z,-7.90
2022-11-22T07:01:29.229Z,-7.91
2022-11-22T07:04:01.031Z,-7.89
2022-11-22T07:06:31.864Z,-7.88
2022-11-22T07:09:01.211Z,-7.86
2022-11-22T07:11:30.824Z,-7.84
2022-11-22T07:14:07.043Z,-7.83
2022-11-22T07:16:38.072Z,-7.89
2022-11-22T07:19:07.525Z,-7.83
2022-11-22T07:21:37.844Z,-7.83
2022-11-22T07:24:07.513Z,-7.81
2022-11-22T07:26:35.523Z,-7.80
2022-11-22T07:29:03.905Z,-7.79
2022-11-22T07:31:34.105Z,-7.80
2022-11-22T07:34:02.113Z,-7.79
2022-11-22T07:36:31.155Z,-7.77
2022-11-22T07:38:59.662Z,-7.80
2022-11-22T07:41:27.655Z,-7.71
2022-11-22T07:43:56.264Z,-7.70
2022-11-22T07:46:33.829Z,-7.70
2022-11-22T07:49:03.494Z,-7.67
2022-11-22T07:51:32.027Z,-7.66
2022-11-22T07:54:01.083Z,-7.64
2022-11-22T07:56:29.110Z,-7.61
2022-11-22T07:58:57.060Z,-7.64
2022-11-22T08:01:27.155Z,-7.65
2022-11-22T08:03:55.206Z,-7.65
2022-11-22T08:06:23.256Z,-7.62
2022-11-22T08:08:57.040Z,-7.61
2022-11-22T08:11:28.618Z,-7.60
2022-11-22T08:13:56.919Z,-7.69
2022-11-22T08:16:24.944Z,-7.59
2022-11-22T08:18:52.932Z,-7.67
2022-11-22T08:21:21.412Z,-7.60
2022-11-22T08:23:51.891Z,-7.60
2022-11-22T08:26:21.619Z,-7.61
2022-11-22T08:28:51.226Z,-7.59
2022-11-22T08:31:20.422Z,-7.60
2022-11-22T08:33:49.581Z,-7.62
2022-11-22T08:36:17.764Z,-7.64
2022-11-22T08:38:45.816Z,-7.66
2022-11-22T08:41:14.157Z,-7.68
2022-11-22T08:43:42.418Z,-7.68
2022-11-22T08:46:10.491Z,-7.75
2022-11-22T08:48:39.596Z,-7.98
2022-11-22T08:51:11.849Z,-7.69
2022-11-22T08:53:42.351Z,-7.72
2022-11-22T08:56:13.907Z,-7.96
2022-11-22T08:58:44.969Z,-7.69
2022-11-22T09:01:16.749Z,-7.72
2022-11-22T09:03:45.823Z,-7.72
2022-11-22T09:11:52.729Z,-7.78
2022-11-22T09:14:20.748Z,-7.79
2022-11-22T09:16:48.720Z,-7.81
2022-11-22T09:19:17.751Z,-7.83
2022-11-22T09:21:45.708Z,-7.84
2022-11-22T09:24:14.546Z,-7.86
2022-11-22T09:26:44.199Z,-7.87
2022-11-22T09:29:12.212Z,-7.86
2022-11-22T09:31:40.175Z,-7.88
2022-11-22T09:34:08.958Z,-7.92
2022-11-22T09:36:37.008Z,-7.91
2022-11-22T09:39:05.189Z,-7.99
2022-11-22T09:41:57.064Z,-7.95
2022-11-22T09:44:38.845Z,-7.97
2022-11-22T09:47:34.087Z,-7.96
2022-11-22T09:50:26.414Z,-7.98
2022-11-22T09:53:17.211Z,-8.00
2022-11-22T09:55:57.817Z,-8.01
2022-11-22T09:58:44.490Z,-8.01
2022-11-22T10:01:28.233Z,-8.03
2022-11-22T10:04:07.046Z,-8.04
2022-11-22T10:06:38.061Z,-8.08
2022-11-22T10:09:12.070Z,-8.06
2022-11-22T10:11:59.984Z,-8.08
2022-11-22T10:14:42.960Z,-8.08
2022-11-22T10:17:39.703Z,-8.09
2022-11-22T10:20:13.496Z,-8.09
2022-11-22T10:22:41.690Z,-8.12
2022-11-22T10:25:36.200Z,-8.13
2022-11-22T10:28:18.995Z,-8.14
2022-11-22T10:31:17.772Z,-8.16
2022-11-22T10:34:04.028Z,-8.18
2022-11-22T10:36:43.373Z,-8.21
2022-11-22T10:39:17.148Z,-8.20
2022-11-22T10:41:59.269Z,-8.22
2022-11-22T10:44:50.095Z,-8.21
2022-11-22T10:47:56.186Z,-8.21
2022-11-22T10:50:33.595Z,-8.21
2022-11-22T10:53:16.551Z,-8.29
2022-11-22T10:55:51.701Z,-8.21
2022-11-22T10:58:37.348Z,-8.21
2022-11-22T11:01:21.929Z,-8.21
2022-11-22T11:03:55.799Z,-8.21
2022-11-22T11:12:30.347Z,-8.22
2022-11-22T11:15:14.032Z,-8.23
2022-11-22T11:17:47.170Z,-8.26
2022-11-22T11:20:26.420Z,-8.29
2022-11-22T11:25:45.690Z,-8.38
2022-11-22T11:28:31.672Z,-8.35
2022-11-22T11:31:49.259Z,-8.36
2022-11-22T11:34:27.325Z,-8.39
2022-11-22T11:36:58.674Z,-8.39
2022-11-22T11:39:32.383Z,-8.39
2022-11-22T11:42:01.324Z,-8.38
2022-11-22T11:44:36.021Z,-8.41
2022-11-22T11:47:06.788Z,-8.45
2022-11-22T11:49:35.875Z,-8.42
2022-11-22T11:52:20.308Z,-8.42
2022-11-22T11:54:57.346Z,-8.46
2022-11-22T11:57:37.447Z,-8.47
2022-11-22T12:00:19.871Z,-8.46
2022-11-22T12:02:51.276Z,-8.49
2022-11-22T12:05:19.226Z,-8.51
2022-11-22T12:07:50.116Z,-8.53
2022-11-22T12:10:59.560Z,-8.56
2022-11-22T12:16:55.849Z,-8.61
2022-11-22T12:19:58.482Z,-8.62
2022-11-22T12:23:05.632Z,-8.62
2022-11-22T12:25:43.405Z,-8.65
2022-11-22T12:28:20.115Z,-8.71
2022-11-22T12:31:00.469Z,-8.69
2022-11-22T12:33:39.072Z,-8.70
2022-11-22T12:36:27.090Z,-8.70
2022-11-22T12:39:03.582Z,-8.70
2022-11-22T12:41:35.051Z,-8.69
2022-11-22T12:44:06.840Z,-8.70
2022-11-22T12:46:46.341Z,-8.73
2022-11-22T12:49:26.876Z,-8.71
2022-11-22T12:52:01.607Z,-8.81
2022-11-22T12:55:02.012Z,-8.74
2022-11-22T12:57:52.489Z,-8.76
2022-11-22T13:00:25.954Z,-8.75
2022-11-22T13:03:06.268Z,-8.76
2022-11-22T13:05:57.396Z,-8.77
2022-11-22T13:08:39.715Z,-8.79
2022-11-22T13:11:19.196Z,-8.80
2022-11-22T13:13:59.358Z,-8.80
2022-11-22T13:16:29.936Z,-8.78
2022-11-22T13:19:03.681Z,-8.78
2022-11-22T13:22:04.164Z,-8.79
2022-11-22T13:24:35.322Z,-8.81
2022-11-22T13:27:09.029Z,-8.81
2022-11-22T13:29:41.126Z,-8.84
2022-11-22T13:32:11.724Z,-8.85
2022-11-22T13:35:01.287Z,-8.89
2022-11-22T13:37:38.629Z,-9.02
2022-11-22T13:40:21.639Z,-8.94
2022-11-22T13:43:13.782Z,-8.93
2022-11-22T13:45:54.754Z,-8.94
2022-11-22T13:48:40.770Z,-8.95
2022-11-22T13:51:21.091Z,-8.99
2022-11-22T13:53:50.450Z,-9.04
2022-11-22T13:56:21.192Z,-9.02
2022-11-22T13:58:51.330Z,-9.04
2022-11-22T14:01:52.449Z,-9.08
2022-11-22T14:04:27.871Z,-9.11
2022-11-22T14:07:11.705Z,-9.13
2022-11-22T14:09:52.672Z,-9.16
2022-11-22T14:12:54.798Z,-9.19
2022-11-22T14:15:53.856Z,-9.21
2022-11-22T14:18:31.358Z,-9.21
2022-11-22T14:21:19.094Z,-9.22
2022-11-22T14:24:07.018Z,-9.22
2022-11-22T14:27:00.693Z,-9.23
2022-11-22T14:29:56.467Z,-9.24
2022-11-22T14:32:27.193Z,-9.27
2022-11-22T14:35:04.272Z,-9.32
2022-11-22T14:37:35.986Z,-9.32
2022-11-22T14:40:09.889Z,-9.32
2022-11-22T14:42:47.759Z,-9.34
2022-11-22T14:45:26.934Z,-9.37
2022-11-22T14:47:54.513Z,-9.41
2022-11-22T14:50:39.315Z,-9.48
2022-11-22T14:53:35.719Z,-9.52
2022-11-22T14:56:15.487Z,-9.58
2022-11-22T14:58:53.261Z,-9.62
2022-11-22T15:01:44.195Z,-9.77
2022-11-22T15:09:18.206Z,-9.85
2022-11-22T15:09:18.783Z,-9.77
2022-11-22T15:10:22.122Z,-9.92
2022-11-22T15:13:17.311Z,-9.95
2022-11-22T15:59:45.315Z,-10.64
2022-11-22T16:02:23.274Z,-10.76
2022-11-22T16:06:06.775Z,-10.71
2022-11-22T16:07:53.204Z,-10.76
2022-11-22T16:10:43.225Z,-10.79
2022-11-22T16:13:21.039Z,-10.86
2022-11-22T16:16:19.511Z,-10.91
2022-11-22T16:18:49.128Z,-10.92
2022-11-22T16:21:17.135Z,-10.97
2022-11-22T16:23:46.288Z,-11.00
2022-11-22T16:26:23.547Z,-11.01
2022-11-22T16:28:54.082Z,-11.04
2022-11-22T16:31:33.036Z,-11.10
2022-11-22T16:34:02.257Z,-11.16
2022-11-22T16:36:30.984Z,-11.26
2022-11-22T16:39:00.106Z,-11.32
2022-11-22T16:41:30.193Z,-11.28
2022-11-22T16:44:03.258Z,-11.30
2022-11-22T16:46:31.483Z,-11.34
2022-11-22T16:48:59.520Z,-11.34
2022-11-22T16:51:29.977Z,-11.37
2022-11-22T16:54:01.285Z,-11.37
2022-11-22T16:56:32.769Z,-11.39
2022-11-22T16:59:00.767Z,-11.39
2022-11-22T17:01:35.652Z,-11.43
2022-11-22T17:04:03.973Z,-11.43
2022-11-22T17:06:33.017Z,-11.42
2022-11-22T17:09:04.316Z,-11.38
2022-11-22T17:11:33.268Z,-11.37
2022-11-22T17:14:01.665Z,-11.36
2022-11-22T17:16:29.973Z,-11.36
2022-11-22T17:19:00.283Z,-11.36
2022-11-22T17:21:37.357Z,-11.36
2022-11-22T17:24:16.039Z,-11.38
2022-11-22T17:26:44.060Z,-11.35
2022-11-22T17:29:34.852Z,-11.32
2022-11-22T17:33:00.753Z,-11.31
2022-11-22T17:35:34.490Z,-11.31
2022-11-22T17:38:05.998Z,-11.32
2022-11-22T17:40:34.036Z,-11.34
2022-11-22T17:43:02.236Z,-11.35
2022-11-22T17:45:30.660Z,-11.36
2022-11-22T17:47:58.586Z,-11.38
2022-11-22T17:50:26.612Z,-11.39
2022-11-22T17:52:54.757Z,-11.39
2022-11-22T17:55:23.128Z,-11.41
2022-11-22T17:57:55.825Z,-11.44
2022-11-22T18:00:29.712Z,-11.46
2022-11-22T18:02:59.653Z,-11.47
2022-11-22T18:05:33.036Z,-11.50
2022-11-22T18:08:01.031Z,-11.51
2022-11-22T18:10:29.045Z,-11.51
2022-11-22T18:13:20.340Z,-11.60
2022-11-22T18:16:02.920Z,-11.50
2022-11-22T18:21:26.392Z,-11.53
2022-11-22T18:23:57.705Z,-11.53
2022-11-22T18:26:41.780Z,-11.59
2022-11-22T18:32:02.935Z,-11.56
2022-11-22T18:34:32.078Z,-11.57
2022-11-22T18:37:03.050Z,-11.58
2022-11-22T18:39:39.481Z,-11.58
2022-11-22T18:42:12.536Z,-11.58
2022-11-22T18:44:40.582Z,-11.66
2022-11-22T18:47:10.109Z,-11.60
2022-11-22T18:49:38.123Z,-11.58
2022-11-22T18:52:06.332Z,-11.60
2022-11-22T18:54:35.912Z,-11.60
2022-11-22T18:57:04.416Z,-11.61
2022-11-22T18:59:33.109Z,-11.69
2022-11-22T19:02:01.217Z,-11.60
2022-11-22T19:04:29.573Z,-11.60
2022-11-22T19:06:57.899Z,-11.60
2022-11-22T19:09:26.137Z,-11.59
2022-11-22T19:11:58.641Z,-11.66
2022-11-22T19:14:29.853Z,-11.59
2022-11-22T19:16:58.234Z,-11.59
2022-11-22T19:19:26.332Z,-11.62
2022-11-22T19:21:55.089Z,-11.63
2022-11-22T19:24:26.127Z,-11.65
2022-11-22T19:26:54.312Z,-11.67
2022-11-22T19:29:22.606Z,-11.65
2022-11-22T19:31:50.689Z,-11.64
2022-11-22T19:34:18.722Z,-11.63
2022-11-22T19:36:46.708Z,-11.61
2022-11-22T19:39:17.128Z,-11.62
2022-11-22T19:41:45.911Z,-11.62
2022-11-22T19:44:14.034Z,-11.62
2022-11-22T19:46:44.230Z,-11.66
2022-11-22T19:49:12.465Z,-11.64
2022-11-22T19:51:40.462Z,-11.64
2022-11-22T19:54:08.696Z,-11.69
2022-11-22T19:56:38.567Z,-11.64
2022-11-22T19:59:08.561Z,-11.66
2022-11-22T20:01:38.156Z,-11.66
2022-11-22T20:04:07.140Z,-11.67
2022-11-22T20:06:37.402Z,-11.67
2022-11-22T20:09:13.905Z,-11.69
2022-11-22T20:11:43.014Z,-11.68
2022-11-22T20:14:11.416Z,-11.67
2022-11-22T20:16:42.485Z,-11.67
2022-11-22T20:19:12.858Z,-11.67
2022-11-22T20:21:41.197Z,-11.75
2022-11-22T20:24:09.824Z,-11.73
2022-11-22T20:26:37.894Z,-11.73
2022-11-22T20:29:08.577Z,-11.66
2022-11-22T20:31:41.085Z,-11.66
2022-11-22T20:34:11.039Z,-11.68
2022-11-22T20:36:38.987Z,-11.70
2022-11-22T20:39:11.028Z,-11.70
2022-11-22T20:41:41.007Z,-11.68
2022-11-22T20:44:13.314Z,-11.67
2022-11-22T20:46:42.669Z,-11.72
2022-11-22T20:49:10.703Z,-11.74
2022-11-22T20:51:43.235Z,-11.67
2022-11-22T20:54:12.579Z,-11.68
2022-11-22T20:56:40.538Z,-11.69
2022-11-22T20:59:08.546Z,-11.70
2022-11-22T21:01:38.111Z,-11.71
2022-11-22T21:04:06.367Z,-11.74
2022-11-22T21:06:35.553Z,-11.70
2022-11-22T21:09:04.989Z,-11.68
2022-11-22T21:11:33.205Z,-11.69
2022-11-22T21:14:01.186Z,-11.70
2022-11-22T21:16:31.534Z,-11.70
2022-11-22T21:19:06.906Z,-11.70
2022-11-22T21:21:39.386Z,-11.71
2022-11-22T21:24:08.287Z,-11.76
2022-11-22T21:26:37.293Z,-11.72
2022-11-22T21:29:14.669Z,-11.81
2022-11-22T21:31:44.012Z,-11.76
2022-11-22T21:34:12.402Z,-11.76
2022-11-22T21:36:40.547Z,-11.77
2022-11-22T21:39:08.425Z,-11.76
2022-11-22T21:41:40.799Z,-11.77
2022-11-22T21:44:11.515Z,-11.77
2022-11-22T21:46:39.505Z,-11.78
2022-11-22T21:49:07.622Z,-11.79
2022-11-22T21:51:35.740Z,-11.80
2022-11-22T21:54:04.517Z,-11.80
2022-11-22T21:56:32.576Z,-11.82
2022-11-22T21:59:01.865Z,-11.90
2022-11-22T22:01:29.941Z,-11.95
2022-11-22T22:03:58.020Z,-12.01
2022-11-22T22:06:26.305Z,-12.09
2022-11-22T22:08:54.314Z,-12.14
2022-11-22T22:11:22.935Z,-12.22
2022-11-22T22:13:56.014Z,-12.27
2022-11-22T22:16:26.254Z,-12.30
2022-11-22T22:18:55.013Z,-12.36
2022-11-22T22:21:23.301Z,-12.48
2022-11-22T22:23:51.326Z,-12.60
2022-11-22T22:26:19.428Z,-12.68
2022-11-22T22:28:47.750Z,-12.78
2022-11-22T22:31:22.093Z,-12.85
2022-11-22T22:33:59.047Z,-12.89
2022-11-22T22:36:28.016Z,-12.97
2022-11-22T22:38:55.817Z,-12.98
2022-11-22T22:41:26.184Z,-13.02
2022-11-22T22:43:54.112Z,-13.09
2022-11-22T22:46:25.299Z,-13.18
2022-11-22T22:48:55.777Z,-13.29
2022-11-22T22:51:32.427Z,-13.45
2022-11-22T22:54:01.985Z,-13.60
2022-11-22T22:56:31.844Z,-13.72
2022-11-22T22:59:01.464Z,-13.85
2022-11-22T23:01:32.232Z,-13.97
2022-11-22T23:04:06.188Z,-14.10
2022-11-22T23:06:39.968Z,-14.22
2022-11-22T23:09:10.381Z,-14.28
2022-11-22T23:11:57.670Z,-14.43
2022-11-22T23:14:27.943Z,-14.64
2022-11-22T23:16:58.279Z,-14.78
2022-11-22T23:19:27.654Z,-14.89
2022-11-22T23:21:56.213Z,-15.06
2022-11-22T23:24:24.146Z,-15.26
2022-11-22T23:26:54.956Z,-15.39
2022-11-22T23:29:23.027Z,-15.67
2022-11-22T23:31:51.038Z,-15.63
2022-11-22T23:34:20.113Z,-15.71
2022-11-22T23:36:48.176Z,-15.83
2022-11-22T23:39:16.322Z,-16.03
2022-11-22T23:41:47.293Z,-16.19
2022-11-22T23:44:15.313Z,-16.32
2022-11-22T23:46:43.294Z,-16.44
2022-11-22T23:49:15.359Z,-16.57
2022-11-22T23:51:43.427Z,-16.73
2022-11-22T23:54:11.553Z,-16.98
2022-11-22T23:56:40.955Z,-17.02
2022-11-22T23:59:11.060Z,-17.17
